Time;durP1;ratioP1;P1;durP2;ratioP2;P2;SDS_P1;SDS_P2;PMS_P1;PMS_P2;Temp;Humidity;BMP_temperature;BMP_pressure;BME280_temperature;BME280_humidity;BME280_pressure;Samples;Min_cycle;Max_cycle;Signal;HPM_P1;HPM_P2
2022/12/19 00:01:26;;;;;;;12.07;8.50;;;10.10;74.70;;;;;;5052364;28;20029;-76
2022/12/19 00:04:00;;;;;;;13.00;8.18;;;10.10;74.70;;;;;;5052653;28;20033;-76
2022/12/19 00:06:27;;;;;;;13.20;8.70;;;10.10;74.70;;;;;;5051400;28;20079;-77
2022/12/19 00:08:53;;;;;;;12.52;8.52;;;10.10;74.70;;;;;;5053034;28;20032;-76
2022/12/19 00:11:21;;;;;;;13.43;8.93;;;10.10;74.60;;;;;;5052463;28;20032;-78
2022/12/19 00:13:46;;;;;;;13.38;8.50;;;10.10;74.70;;;;;;5052630;28;20025;-76
2022/12/19 00:16:14;;;;;;;12.95;8.48;;;10.10;74.80;;;;;;5051649;28;20017;-76
2022/12/19 00:18:41;;;;;;;12.57;8.57;;;10.10;74.80;;;;;;5051181;28;20032;-77
2022/12/19 00:21:09;;;;;;;13.98;8.98;;;10.10;74.80;;;;;;5052338;28;20028;-76
2022/12/19 00:23:35;;;;;;;12.00;8.02;;;10.10;74.80;;;;;;5051027;28;20098;-76
2022/12/19 00:26:15;;;;;;;12.73;8.60;;;10.10;74.70;;;;;;5050881;28;20547;-77
2022/12/19 00:28:42;;;;;;;12.57;8.27;;;10.10;74.70;;;;;;5052442;28;20032;-77
2022/12/19 00:31:11;;;;;;;12.55;8.65;;;10.10;74.80;;;;;;5051967;28;20033;-77
2022/12/19 00:33:37;;;;;;;13.10;8.73;;;10.10;74.70;;;;;;5050834;28;20502;-77
2022/12/19 00:36:06;;;;;;;13.25;8.95;;;10.10;74.80;;;;;;5051845;28;20108;-78
2022/12/19 00:38:32;;;;;;;12.68;8.50;;;10.10;74.70;;;;;;5050546;28;20028;-77
2022/12/19 00:41:12;;;;;;;12.57;8.52;;;10.10;74.70;;;;;;5050543;28;20025;-76
2022/12/19 00:43:38;;;;;;;13.05;8.65;;;10.10;75.30;;;;;;5050978;28;20022;-77
2022/12/19 00:46:11;;;;;;;12.43;8.20;;;10.10;74.80;;;;;;5052121;28;20439;-77
2022/12/19 00:48:36;;;;;;;12.95;8.55;;;10.10;74.70;;;;;;5050689;28;20028;-77
2022/12/19 00:51:14;;;;;;;12.65;8.32;;;10.10;74.70;;;;;;5050424;28;20029;-77
2022/12/19 00:53:40;;;;;;;12.82;8.57;;;10.10;74.80;;;;;;5050767;28;20021;-77
2022/12/19 00:56:15;;;;;;;12.85;8.30;;;10.10;74.80;;;;;;5050905;28;20025;-77
2022/12/19 00:58:41;;;;;;;12.45;8.40;;;10.10;74.80;;;;;;5050754;28;20404;-76
2022/12/19 01:01:16;;;;;;;13.43;8.88;;;10.10;74.80;;;;;;5050326;28;20025;-77
2022/12/19 01:03:42;;;;;;;13.20;8.75;;;10.10;74.80;;;;;;5050651;28;20075;-77
2022/12/19 01:06:08;;;;;;;12.93;8.50;;;10.10;74.80;;;;;;5055360;28;20025;-75
2022/12/19 01:08:36;;;;;;;12.30;8.40;;;10.10;74.70;;;;;;5054450;28;20111;-79
2022/12/19 01:11:02;;;;;;;12.80;9.13;;;10.10;74.80;;;;;;5054271;28;20025;-76
2022/12/19 01:13:29;;;;;;;12.95;8.30;;;10.10;74.80;;;;;;5055788;28;20027;-76
2022/12/19 01:15:55;;;;;;;12.82;8.63;;;10.10;74.80;;;;;;5054279;28;20025;-77
2022/12/19 01:18:21;;;;;;;12.80;8.48;;;10.10;74.80;;;;;;5055634;28;20033;-77
2022/12/19 01:20:47;;;;;;;13.93;8.32;;;10.10;74.80;;;;;;5055403;28;20531;-77
2022/12/19 01:23:15;;;;;;;12.40;8.35;;;10.10;74.80;;;;;;5054530;28;20021;-78
2022/12/19 01:25:41;;;;;;;12.52;8.27;;;10.10;74.80;;;;;;5055468;28;20122;-77
2022/12/19 01:28:10;;;;;;;11.93;7.85;;;10.10;74.80;;;;;;5055400;28;20500;-78
2022/12/19 01:30:39;;;;;;;11.98;7.90;;;10.10;75.00;;;;;;5055468;28;20040;-76
2022/12/19 01:33:04;;;;;;;12.98;8.38;;;10.10;74.90;;;;;;5055350;28;20118;-76
2022/12/19 01:35:30;;;;;;;13.45;8.88;;;10.10;75.00;;;;;;5055523;28;20013;-78
2022/12/19 01:37:56;;;;;;;13.20;8.48;;;10.10;74.90;;;;;;5055160;28;20115;-77
2022/12/19 01:40:22;;;;;;;12.75;8.23;;;10.10;74.90;;;;;;5054044;28;20472;-76
2022/12/19 01:42:49;;;;;;;11.85;8.15;;;10.00;74.80;;;;;;5054833;28;20033;-78
2022/12/19 01:45:14;;;;;;;11.82;7.53;;;10.10;74.90;;;;;;5053827;28;20029;-76
2022/12/19 01:47:39;;;;;;;12.90;8.60;;;10.00;74.90;;;;;;5054988;28;20033;-76
2022/12/19 01:50:10;;;;;;;12.85;8.45;;;10.10;74.90;;;;;;5053731;28;20032;-76
2022/12/19 01:52:36;;;;;;;12.73;8.45;;;10.00;74.80;;;;;;5055045;28;20120;-75
2022/12/19 01:55:01;;;;;;;13.63;8.93;;;10.00;74.80;;;;;;5053681;28;20040;-76
2022/12/19 01:57:28;;;;;;;12.10;8.40;;;10.00;74.80;;;;;;5053717;28;20152;-77
2022/12/19 01:59:57;;;;;;;12.77;8.50;;;10.00;74.80;;;;;;5053584;28;20503;-75
2022/12/19 02:02:28;;;;;;;12.35;7.65;;;10.00;74.90;;;;;;5053418;28;20082;-76
2022/12/19 02:04:54;;;;;;;13.07;8.55;;;10.00;74.80;;;;;;5054048;28;20386;-76
2022/12/19 02:07:22;;;;;;;11.40;7.65;;;10.00;74.80;;;;;;5054493;28;20033;-77
2022/12/19 02:09:52;;;;;;;12.45;8.15;;;10.00;75.00;;;;;;5053494;28;20021;-77
2022/12/19 02:12:18;;;;;;;13.07;8.57;;;10.00;74.90;;;;;;5053130;28;20025;-77
2022/12/19 02:14:44;;;;;;;13.50;8.88;;;10.00;74.90;;;;;;5054575;28;20389;-76
2022/12/19 02:17:27;;;;;;;12.10;8.25;;;10.10;74.40;;;;;;5052664;28;20029;-75
2022/12/19 02:20:16;;;;;;;13.15;8.13;;;10.10;74.30;;;;;;5054509;28;20027;-75
2022/12/19 02:23:04;;;;;;;12.57;8.02;;;10.10;74.20;;;;;;5054239;28;20096;-77
2022/12/19 02:25:29;;;;;;;12.88;8.40;;;10.10;74.00;;;;;;5053263;28;20032;-76
2022/12/19 02:28:31;;;;;;;11.15;7.65;;;10.10;74.00;;;;;;5053216;28;20385;-77
2022/12/19 02:31:05;;;;;;;12.55;8.20;;;10.10;74.00;;;;;;5031301;28;20116;-76
2022/12/19 02:33:42;;;;;;;12.70;8.02;;;10.10;74.00;;;;;;5053100;28;20032;-76
2022/12/19 02:36:45;;;;;;;12.80;8.13;;;10.20;73.90;;;;;;5052910;28;20028;-76
2022/12/19 02:39:25;;;;;;;11.88;7.85;;;10.20;73.90;;;;;;5021910;28;20064;-77
2022/12/19 02:41:58;;;;;;;11.93;7.85;;;10.10;73.90;;;;;;5052604;28;20021;-77
2022/12/19 02:44:37;;;;;;;10.82;7.45;;;10.20;74.20;;;;;;5054038;28;20064;-77
2022/12/19 02:47:05;;;;;;;11.63;7.57;;;10.10;74.00;;;;;;5052779;28;20514;-77
2022/12/19 02:49:36;;;;;;;11.93;7.85;;;10.10;74.30;;;;;;5052674;28;20032;-77
2022/12/19 02:52:31;;;;;;;14.40;8.20;;;10.10;74.50;;;;;;5053810;28;20025;-77
2022/12/19 02:55:12;;;;;;;12.18;8.07;;;10.10;74.70;;;;;;5053195;28;20445;-77
2022/12/19 02:57:52;;;;;;;12.15;7.25;;;10.00;74.70;;;;;;5053979;28;20017;-77
2022/12/19 03:00:21;;;;;;;12.05;8.05;;;10.00;74.70;;;;;;5052848;28;20029;-76
2022/12/19 03:03:05;;;;;;;12.43;8.15;;;10.10;74.80;;;;;;5052226;28;20079;-77
2022/12/19 03:05:43;;;;;;;12.90;8.60;;;9.90;74.60;;;;;;5053581;28;20485;-76
2022/12/19 03:08:27;;;;;;;12.50;8.15;;;10.00;74.80;;;;;;5053513;28;20493;-76
2022/12/19 03:10:58;;;;;;;13.05;7.88;;;9.90;74.90;;;;;;5053570;28;20533;-76
2022/12/19 03:13:53;;;;;;;14.13;8.65;;;9.90;74.80;;;;;;5053547;28;20063;-77
2022/12/19 03:16:19;;;;;;;12.57;7.95;;;9.90;74.70;;;;;;5060837;28;20017;-77
2022/12/19 03:18:44;;;;;;;12.43;7.90;;;9.90;74.90;;;;;;5082815;28;20039;-76
2022/12/19 03:21:22;;;;;;;11.70;7.60;;;9.90;75.00;;;;;;5092174;28;20031;-76
2022/12/19 03:23:49;;;;;;;12.30;7.80;;;9.90;75.00;;;;;;5091868;28;20024;-77
2022/12/19 03:26:22;;;;;;;12.82;8.43;;;9.90;75.00;;;;;;5092154;28;20028;-77
2022/12/19 03:29:08;;;;;;;12.27;7.88;;;9.90;75.00;;;;;;5091165;28;20035;-77
2022/12/19 03:31:35;;;;;;;11.68;7.60;;;9.90;75.10;;;;;;5093181;28;20613;-76
2022/12/19 03:34:12;;;;;;;12.68;7.28;;;9.90;74.80;;;;;;5093272;28;20023;-76
2022/12/19 03:36:42;;;;;;;12.60;8.13;;;9.90;74.90;;;;;;5093101;28;20032;-76
2022/12/19 03:39:09;;;;;;;11.13;7.72;;;9.90;75.00;;;;;;5091825;28;20032;-76
2022/12/19 03:44:24;;;;;;;11.23;7.70;;;9.90;75.00;;;;;;5093399;28;20031;-77
2022/12/19 03:46:57;;;;;;;12.68;8.20;;;9.90;75.10;;;;;;5091790;28;20039;-77
2022/12/19 03:49:23;;;;;;;11.23;7.35;;;9.90;75.10;;;;;;5091687;28;20030;-76
2022/12/19 03:51:56;;;;;;;12.02;7.97;;;9.90;75.00;;;;;;5091287;28;20028;-78
2022/12/19 03:54:33;;;;;;;11.40;7.28;;;9.90;75.10;;;;;;5091781;28;20115;-77
2022/12/19 03:57:14;;;;;;;12.90;8.02;;;9.90;75.00;;;;;;5091696;28;20234;-79
2022/12/19 03:59:49;;;;;;;12.23;7.57;;;9.90;75.00;;;;;;5092957;28;20035;-76
2022/12/19 04:02:18;;;;;;;12.57;7.93;;;9.90;75.10;;;;;;5092867;28;20032;-76
2022/12/19 04:04:47;;;;;;;11.55;7.53;;;9.90;75.10;;;;;;5091484;28;20028;-76
2022/12/19 04:07:14;;;;;;;11.63;7.75;;;9.90;75.60;;;;;;5092706;28;20043;-76
2022/12/19 04:09:42;;;;;;;12.15;7.90;;;9.90;75.10;;;;;;5091416;28;20046;-77
2022/12/19 04:12:19;;;;;;;12.60;7.85;;;9.90;75.10;;;;;;5092489;28;20019;-76
2022/12/19 04:14:45;;;;;;;12.45;7.82;;;9.90;75.10;;;;;;5091431;28;20065;-76
2022/12/19 04:17:32;;;;;;;11.98;7.63;;;9.90;75.20;;;;;;5092563;28;20028;-76
2022/12/19 04:20:13;;;;;;;11.40;7.88;;;9.90;75.10;;;;;;5091406;28;20020;-76
2022/12/19 04:22:52;;;;;;;12.07;7.68;;;9.90;75.10;;;;;;5091141;28;20020;-77
2022/12/19 04:25:27;;;;;;;11.73;7.53;;;9.90;75.10;;;;;;5091285;28;20036;-76
2022/12/19 04:27:59;;;;;;;12.73;7.93;;;9.90;75.70;;;;;;5092332;28;20028;-76
2022/12/19 04:30:25;;;;;;;11.40;7.45;;;9.90;75.10;;;;;;5092557;28;20020;-76
2022/12/19 04:32:52;;;;;;;10.95;7.30;;;9.90;75.70;;;;;;5092189;28;20031;-76
2022/12/19 04:35:18;;;;;;;11.98;7.60;;;9.90;75.10;;;;;;5091202;28;20030;-76
2022/12/19 04:37:43;;;;;;;11.00;7.68;;;9.90;75.70;;;;;;5090949;28;20032;-75
2022/12/19 04:40:09;;;;;;;11.07;7.20;;;9.90;75.10;;;;;;5092090;28;20044;-77
2022/12/19 04:42:35;;;;;;;11.35;7.50;;;9.90;75.10;;;;;;5092060;28;20032;-77
2022/12/19 04:45:02;;;;;;;11.50;7.65;;;9.90;75.10;;;;;;5092581;28;20479;-75
2022/12/19 04:47:27;;;;;;;11.80;7.50;;;9.90;75.20;;;;;;5092092;28;20042;-77
2022/12/19 04:49:53;;;;;;;10.80;6.90;;;9.90;75.20;;;;;;5092101;28;20024;-75
2022/12/19 04:52:18;;;;;;;11.75;7.30;;;9.90;75.20;;;;;;5091958;28;20038;-76
2022/12/19 04:54:44;;;;;;;11.70;7.68;;;9.90;75.20;;;;;;5090927;28;20499;-76
2022/12/19 04:57:09;;;;;;;11.50;7.78;;;9.90;75.20;;;;;;5092189;28;20032;-75
2022/12/19 04:59:35;;;;;;;11.45;7.13;;;9.80;75.20;;;;;;5092163;28;20032;-75
2022/12/19 05:02:00;;;;;;;12.30;7.93;;;9.90;75.20;;;;;;5091827;28;20026;-76
2022/12/19 05:04:26;;;;;;;11.98;7.57;;;9.90;75.20;;;;;;5090846;28;20055;-77
2022/12/19 05:06:52;;;;;;;11.73;7.45;;;9.80;75.20;;;;;;5091149;28;20016;-76
2022/12/19 05:09:17;;;;;;;11.15;6.93;;;9.90;75.20;;;;;;5090678;28;20066;-77
2022/12/19 05:11:42;;;;;;;11.43;7.65;;;9.90;75.20;;;;;;5090615;28;20060;-77
2022/12/19 05:14:09;;;;;;;12.30;7.78;;;9.80;75.10;;;;;;5092109;28;20099;-76
2022/12/19 05:16:34;;;;;;;11.90;7.57;;;9.80;75.00;;;;;;5056411;28;20049;-75
2022/12/19 05:19:00;;;;;;;10.85;7.30;;;9.80;75.10;;;;;;5058240;28;20504;-74
2022/12/19 05:21:26;;;;;;;11.20;7.60;;;9.90;75.20;;;;;;5050192;28;20447;-77
2022/12/19 05:23:52;;;;;;;11.25;7.47;;;9.80;75.10;;;;;;5050682;28;20051;-76
2022/12/19 05:26:18;;;;;;;11.30;7.20;;;9.90;75.10;;;;;;5051649;28;20489;-76
2022/12/19 05:28:43;;;;;;;12.00;7.65;;;9.80;75.10;;;;;;5050282;28;20029;-80
2022/12/19 05:31:13;;;;;;;11.05;7.38;;;9.80;75.00;;;;;;5051316;28;20029;-76
2022/12/19 05:33:40;;;;;;;12.23;7.32;;;9.80;75.10;;;;;;5050271;28;20481;-75
2022/12/19 05:36:07;;;;;;;12.88;7.75;;;9.80;75.10;;;;;;5051627;28;20025;-75
2022/12/19 05:38:33;;;;;;;11.18;7.43;;;9.80;75.00;;;;;;5050219;28;20086;-75
2022/12/19 05:40:59;;;;;;;11.07;7.10;;;9.80;75.00;;;;;;5050987;28;20089;-76
2022/12/19 05:43:25;;;;;;;11.85;7.75;;;9.80;75.20;;;;;;5050295;28;20389;-76
2022/12/19 05:45:51;;;;;;;11.18;7.65;;;9.80;75.10;;;;;;5050203;28;20171;-78
2022/12/19 05:48:16;;;;;;;11.45;7.57;;;9.80;75.10;;;;;;5050123;28;20025;-75
2022/12/19 05:50:46;;;;;;;12.20;7.78;;;9.80;75.10;;;;;;5050228;28;20013;-75
2022/12/19 05:53:12;;;;;;;12.07;7.40;;;9.80;75.20;;;;;;5062768;28;20551;-75
2022/12/19 05:55:38;;;;;;;12.75;7.57;;;9.80;75.20;;;;;;5073690;28;20139;-75
2022/12/19 05:58:03;;;;;;;12.88;8.27;;;9.80;75.10;;;;;;5073690;28;20028;-76
2022/12/19 06:00:29;;;;;;;12.07;7.70;;;9.80;75.20;;;;;;5073668;28;20032;-74
2022/12/19 06:02:54;;;;;;;11.52;7.57;;;9.80;75.10;;;;;;5074548;28;20020;-75
2022/12/19 06:05:20;;;;;;;12.15;7.50;;;9.80;75.20;;;;;;5073500;28;20033;-75
2022/12/19 06:07:45;;;;;;;12.70;7.72;;;9.80;75.30;;;;;;5074721;28;20106;-78
2022/12/19 06:10:11;;;;;;;10.80;6.78;;;9.80;75.20;;;;;;5073496;28;20021;-75
2022/12/19 06:12:36;;;;;;;11.43;7.63;;;9.90;75.20;;;;;;5074433;28;20021;-77
2022/12/19 06:15:02;;;;;;;11.48;7.15;;;9.80;75.20;;;;;;5074512;28;20104;-76
2022/12/19 06:17:28;;;;;;;11.50;7.40;;;9.80;75.20;;;;;;5073336;28;20051;-75
2022/12/19 06:19:53;;;;;;;10.98;7.35;;;9.80;75.20;;;;;;5073285;28;20031;-76
2022/12/19 06:22:19;;;;;;;11.45;7.68;;;9.80;75.30;;;;;;5072967;28;20042;-76
2022/12/19 06:24:44;;;;;;;10.60;7.22;;;9.80;75.30;;;;;;5073089;28;20077;-80
2022/12/19 06:27:10;;;;;;;11.07;7.00;;;9.80;75.30;;;;;;5070672;28;20030;-76
2022/12/19 06:29:35;;;;;;;11.85;7.80;;;9.80;75.40;;;;;;5072962;28;20032;-76
2022/12/19 06:32:01;;;;;;;12.65;7.65;;;9.80;75.30;;;;;;5072797;28;20598;-77
2022/12/19 06:34:26;;;;;;;11.82;7.55;;;9.80;75.20;;;;;;5074320;28;20054;-77
2022/12/19 06:36:53;;;;;;;11.00;6.93;;;9.90;75.20;;;;;;5072764;28;20484;-76
2022/12/19 06:39:18;;;;;;;11.18;7.28;;;9.90;75.10;;;;;;5074230;28;20051;-75
2022/12/19 06:44:30;;;;;;;11.55;7.25;;;10.00;74.90;;;;;;5074479;28;20043;-78
2022/12/19 06:46:55;;;;;;;11.98;7.65;;;10.00;74.80;;;;;;5075275;28;20037;-78
2022/12/19 06:49:21;;;;;;;11.38;7.18;;;10.00;74.80;;;;;;5072802;28;20051;-77
2022/12/19 06:51:46;;;;;;;12.55;7.40;;;10.00;74.80;;;;;;5073796;28;20017;-78
2022/12/19 06:54:13;;;;;;;11.88;7.35;;;10.00;74.70;;;;;;5074134;28;20029;-77
2022/12/19 06:56:40;;;;;;;12.25;7.97;;;10.00;74.60;;;;;;5073215;28;20388;-77
2022/12/19 06:59:10;;;;;;;11.80;7.25;;;10.00;74.60;;;;;;5072706;28;20029;-80
2022/12/19 07:01:41;;;;;;;12.70;8.32;;;10.00;74.60;;;;;;5072676;28;20070;-76
2022/12/19 07:04:11;;;;;;;10.13;6.90;;;10.00;74.70;;;;;;5072487;28;20028;-77
2022/12/19 07:06:37;;;;;;;12.32;7.47;;;10.00;74.60;;;;;;5074061;28;20028;-75
2022/12/19 07:09:03;;;;;;;12.70;7.93;;;9.90;74.70;;;;;;5072368;28;20024;-75
2022/12/19 07:11:29;;;;;;;11.43;7.40;;;9.90;74.80;;;;;;5073426;28;20083;-76
2022/12/19 07:13:54;;;;;;;11.05;7.32;;;9.80;74.90;;;;;;5073542;28;20017;-77
2022/12/19 07:16:20;;;;;;;11.43;7.00;;;9.90;75.10;;;;;;5072447;28;20388;-76
2022/12/19 07:18:45;;;;;;;11.48;7.38;;;9.80;75.30;;;;;;5072353;28;20036;-76
2022/12/19 07:21:11;;;;;;;10.65;6.95;;;9.80;75.40;;;;;;5071966;28;20024;-75
2022/12/19 07:23:37;;;;;;;11.70;7.45;;;9.80;75.60;;;;;;5072226;28;20389;-75
2022/12/19 07:26:03;;;;;;;12.07;7.43;;;9.80;75.40;;;;;;5062257;28;20029;-76
2022/12/19 07:28:29;;;;;;;11.43;7.40;;;9.80;75.50;;;;;;5052861;28;20032;-76
2022/12/19 07:30:55;;;;;;;12.32;7.70;;;9.70;75.50;;;;;;5056285;28;20391;-75
2022/12/19 07:33:20;;;;;;;12.68;8.55;;;9.70;75.50;;;;;;5073089;28;20104;-77
2022/12/19 07:35:46;;;;;;;10.75;7.10;;;9.70;75.60;;;;;;5069150;28;20024;-75
2022/12/19 07:38:11;;;;;;;11.43;7.53;;;9.70;75.60;;;;;;5051332;28;20036;-74
2022/12/19 07:40:37;;;;;;;11.23;7.55;;;9.70;75.70;;;;;;5051452;28;20111;-75
2022/12/19 07:43:04;;;;;;;12.02;8.05;;;9.70;75.70;;;;;;5051250;28;20484;-76
2022/12/19 07:45:30;;;;;;;11.25;7.28;;;9.70;75.80;;;;;;5051575;28;20068;-76
2022/12/19 07:47:59;;;;;;;10.55;6.82;;;9.70;75.80;;;;;;5055466;28;20051;-77
2022/12/19 07:50:25;;;;;;;11.07;7.60;;;9.70;76.00;;;;;;5072465;28;20021;-79
2022/12/19 07:52:50;;;;;;;10.75;7.25;;;9.70;75.90;;;;;;5072650;28;20036;-76
2022/12/19 07:55:16;;;;;;;10.88;7.07;;;9.70;75.90;;;;;;5071811;28;20070;-76
2022/12/19 07:57:41;;;;;;;11.10;7.05;;;9.70;75.90;;;;;;5071312;28;20032;-76
2022/12/19 08:00:07;;;;;;;10.63;7.50;;;9.70;76.00;;;;;;5071130;28;20047;-76
2022/12/19 08:02:33;;;;;;;10.82;7.43;;;9.70;76.00;;;;;;5070888;28;20590;-76
2022/12/19 08:04:58;;;;;;;11.02;7.15;;;9.70;76.00;;;;;;5072480;28;20021;-76
2022/12/19 08:07:24;;;;;;;10.38;6.85;;;9.70;76.00;;;;;;5071137;28;20024;-76
2022/12/19 08:09:49;;;;;;;11.18;7.53;;;9.70;76.00;;;;;;5070976;28;20055;-75
2022/12/19 08:12:15;;;;;;;10.90;6.85;;;9.70;76.00;;;;;;5070576;28;20052;-76
2022/12/19 08:14:41;;;;;;;9.95;6.75;;;9.70;76.00;;;;;;5070801;28;20073;-75
2022/12/19 08:17:06;;;;;;;10.02;6.70;;;9.70;76.00;;;;;;5070757;28;20031;-77
2022/12/19 08:19:32;;;;;;;10.15;6.85;;;9.70;76.00;;;;;;5072045;28;20035;-76
2022/12/19 08:21:57;;;;;;;10.32;6.88;;;9.70;76.00;;;;;;5061737;28;20112;-76
2022/12/19 08:24:23;;;;;;;10.77;6.75;;;9.70;76.00;;;;;;5050722;28;20033;-78
2022/12/19 08:26:48;;;;;;;10.65;6.90;;;9.70;76.00;;;;;;5050787;28;20125;-78
2022/12/19 08:29:14;;;;;;;11.65;6.88;;;9.70;76.00;;;;;;5050600;28;20031;-76
2022/12/19 08:31:39;;;;;;;10.63;6.88;;;9.70;76.00;;;;;;5051919;28;20747;-75
2022/12/19 08:34:05;;;;;;;10.35;6.95;;;9.70;76.00;;;;;;5050897;28;20013;-77
2022/12/19 08:36:30;;;;;;;9.85;6.45;;;9.70;76.10;;;;;;5051895;28;20021;-77
2022/12/19 08:38:56;;;;;;;9.85;6.43;;;9.70;76.00;;;;;;5052191;28;20032;-77
2022/12/19 08:41:22;;;;;;;10.20;6.53;;;9.70;76.10;;;;;;5051982;28;20036;-78
2022/12/19 08:43:50;;;;;;;10.32;6.63;;;9.70;76.10;;;;;;5050965;28;20057;-76
2022/12/19 08:46:17;;;;;;;10.05;6.32;;;9.70;76.10;;;;;;5050980;28;20025;-76
2022/12/19 08:48:43;;;;;;;9.65;6.10;;;9.70;76.00;;;;;;5050727;28;20055;-76
2022/12/19 08:51:10;;;;;;;10.20;6.68;;;9.70;76.10;;;;;;5050651;28;20021;-76
2022/12/19 08:53:38;;;;;;;9.85;6.72;;;9.70;76.10;;;;;;5052236;28;20111;-78
2022/12/19 08:56:15;;;;;;;10.00;6.45;;;9.70;76.10;;;;;;5052133;28;20017;-76
2022/12/19 08:58:41;;;;;;;9.85;6.50;;;9.70;76.20;;;;;;5051972;28;20473;-76
2022/12/19 09:01:09;;;;;;;10.45;6.63;;;9.70;76.10;;;;;;5052159;28;20032;-76
2022/12/19 09:03:35;;;;;;;10.45;6.80;;;9.70;76.70;;;;;;5050984;28;20051;-77
2022/12/19 09:06:04;;;;;;;9.95;6.22;;;9.70;76.20;;;;;;5051913;28;20115;-76
2022/12/19 09:08:30;;;;;;;9.05;6.05;;;9.70;76.20;;;;;;5051844;28;20029;-74
2022/12/19 09:10:58;;;;;;;10.35;6.47;;;9.70;76.20;;;;;;5051618;28;20029;-76
2022/12/19 09:13:25;;;;;;;10.40;6.38;;;9.70;76.30;;;;;;5051093;28;20021;-75
2022/12/19 09:16:02;;;;;;;9.40;6.15;;;9.70;76.20;;;;;;5050769;28;20018;-77
2022/12/19 09:18:28;;;;;;;9.20;6.10;;;9.70;76.30;;;;;;5052092;28;20085;-79
2022/12/19 09:20:54;;;;;;;9.60;5.93;;;9.70;76.30;;;;;;5051513;28;20091;-76
2022/12/19 09:23:21;;;;;;;9.85;6.25;;;9.70;76.30;;;;;;5050622;28;20029;-76
2022/12/19 09:25:47;;;;;;;9.63;6.10;;;9.70;76.30;;;;;;5065988;28;20116;-76
2022/12/19 09:28:13;;;;;;;8.85;5.72;;;9.70;76.30;;;;;;5075202;28;20092;-76
2022/12/19 09:30:38;;;;;;;9.45;5.95;;;9.70;76.30;;;;;;5057356;28;20096;-76
2022/12/19 09:33:04;;;;;;;9.10;5.88;;;9.70;76.30;;;;;;5055788;28;20029;-78
2022/12/19 09:35:30;;;;;;;9.55;5.90;;;9.70;76.50;;;;;;5054133;28;20025;-78
2022/12/19 09:37:55;;;;;;;9.05;6.15;;;9.70;76.50;;;;;;5054143;28;20051;-75
2022/12/19 09:40:21;;;;;;;9.73;6.15;;;9.70;76.50;;;;;;5055550;28;20060;-76
2022/12/19 09:42:59;;;;;;;8.57;5.55;;;9.70;76.50;;;;;;5055127;28;20032;-76
2022/12/19 09:45:39;;;;;;;8.70;5.75;;;9.70;76.50;;;;;;5055424;28;20116;-77
2022/12/19 09:48:11;;;;;;;8.88;5.53;;;9.70;76.50;;;;;;5055355;28;20021;-76
2022/12/19 09:50:51;;;;;;;8.43;5.22;;;9.70;76.50;;;;;;5054962;28;20025;-75
2022/12/19 09:53:27;;;;;;;8.27;5.72;;;9.70;76.50;;;;;;5053833;28;20028;-76
2022/12/19 09:55:53;;;;;;;9.20;5.97;;;9.70;76.50;;;;;;5055039;28;20021;-76
2022/12/19 09:58:34;;;;;;;10.00;5.60;;;9.70;76.50;;;;;;5055009;28;20025;-76
2022/12/19 10:01:06;;;;;;;9.55;5.15;;;9.70;76.30;;;;;;5053458;28;20123;-77
2022/12/19 10:03:35;;;;;;;;;;;9.70;76.10;;;;;;5055867;28;20037;-78
2022/12/19 10:06:14;;;;;;;11.75;5.65;;;9.70;76.10;;;;;;5054961;28;19905;-76
2022/12/19 10:08:43;;;;;;;8.65;5.00;;;9.70;76.30;;;;;;5054342;28;20029;-76
2022/12/19 10:11:14;;;;;;;8.82;5.38;;;9.70;76.40;;;;;;5053135;28;20021;-76
2022/12/19 10:14:01;;;;;;;8.95;5.30;;;9.70;76.50;;;;;;5054553;28;20032;-76
2022/12/19 10:16:55;;;;;;;10.10;5.65;;;9.70;76.50;;;;;;5053244;28;20020;-76
2022/12/19 10:19:23;;;;;;;8.85;5.20;;;9.70;76.50;;;;;;5053151;28;20124;-76
2022/12/19 10:22:03;;;;;;;9.27;5.63;;;9.70;76.50;;;;;;5052763;28;20025;-76
2022/12/19 10:24:47;;;;;;;8.52;5.43;;;9.70;76.50;;;;;;5052898;28;20028;-76
2022/12/19 10:27:32;;;;;;;8.20;5.35;;;9.70;76.50;;;;;;5066048;28;20074;-76
2022/12/19 10:30:13;;;;;;;8.48;4.97;;;9.70;76.60;;;;;;5066996;28;20036;-75
2022/12/19 10:32:41;;;;;;;8.63;5.07;;;9.70;76.60;;;;;;5052604;28;20025;-73
2022/12/19 10:35:16;;;;;;;8.68;5.18;;;9.70;76.50;;;;;;5052623;28;20029;-74
2022/12/19 10:38:07;;;;;;;10.63;4.70;;;9.70;76.50;;;;;;5052039;28;20060;-74
2022/12/19 10:40:46;;;;;;;8.90;5.35;;;9.70;76.50;;;;;;5045638;28;20040;-75
2022/12/19 10:43:39;;;;;;;8.70;5.38;;;9.80;76.70;;;;;;5052464;28;20498;-74
2022/12/19 10:46:14;;;;;;;9.82;5.45;;;9.70;76.60;;;;;;5052702;28;20060;-76
2022/12/19 10:48:40;;;;;;;8.80;4.88;;;9.70;76.40;;;;;;5053907;28;20037;-75
2022/12/19 10:51:19;;;;;;;8.63;5.20;;;9.70;76.60;;;;;;5053728;28;20028;-76
2022/12/19 10:53:55;;;;;;;8.48;5.38;;;9.70;76.70;;;;;;5052656;28;20025;-77
2022/12/19 10:56:24;;;;;;;8.38;4.63;;;9.70;76.90;;;;;;5052680;28;20499;-76
2022/12/19 10:58:56;;;;;;;7.95;4.95;;;9.70;76.80;;;;;;5052872;28;20036;-75
2022/12/19 11:01:32;;;;;;;7.68;4.80;;;9.80;76.90;;;;;;5052293;28;20035;-76
2022/12/19 11:04:32;;;;;;;8.88;5.05;;;9.80;76.70;;;;;;5053777;28;20025;-75
2022/12/19 11:07:17;;;;;;;7.97;4.95;;;9.80;76.80;;;;;;5053687;28;20021;-76
2022/12/19 11:09:43;;;;;;;8.45;4.90;;;9.80;76.60;;;;;;5053556;28;20025;-75
2022/12/19 11:12:11;;;;;;;8.13;5.05;;;9.80;76.50;;;;;;5052038;28;20546;-76
2022/12/19 11:14:39;;;;;;;7.88;4.68;;;9.80;76.40;;;;;;5052326;28;20043;-74
2022/12/19 11:17:21;;;;;;;7.93;4.68;;;9.90;76.40;;;;;;5052272;28;20032;-76
2022/12/19 11:19:47;;;;;;;7.45;4.38;;;9.90;76.20;;;;;;5053423;28;20033;-76
2022/12/19 11:22:22;;;;;;;8.75;4.88;;;9.90;76.20;;;;;;5053387;28;20032;-76
2022/12/19 11:24:51;;;;;;;8.15;4.88;;;9.90;76.20;;;;;;5053403;28;20032;-77
2022/12/19 11:27:35;;;;;;;8.45;4.82;;;9.90;76.20;;;;;;5052104;28;20474;-75
2022/12/19 11:30:05;;;;;;;7.40;4.75;;;9.90;76.60;;;;;;5053293;28;20082;-76
2022/12/19 11:32:39;;;;;;;8.95;5.00;;;9.90;76.70;;;;;;5053131;28;20112;-77
2022/12/19 11:35:21;;;;;;;8.20;4.47;;;9.80;76.90;;;;;;5051900;28;20108;-75
2022/12/19 11:37:57;;;;;;;8.18;5.30;;;9.90;76.80;;;;;;5051568;28;20512;-76
2022/12/19 11:40:37;;;;;;;8.38;5.10;;;9.80;76.80;;;;;;5053136;28;20056;-75
2022/12/19 11:43:06;;;;;;;8.40;4.78;;;9.80;76.70;;;;;;5052931;28;20503;-75
2022/12/19 11:45:55;;;;;;;7.18;4.20;;;9.80;76.90;;;;;;5051490;28;20029;-75
2022/12/19 11:48:39;;;;;;;7.38;4.18;;;9.80;76.80;;;;;;5043626;28;20044;-77
2022/12/19 11:51:13;;;;;;;7.82;4.60;;;9.80;76.70;;;;;;5052864;28;20028;-76
2022/12/19 11:54:01;;;;;;;7.70;4.72;;;9.70;76.70;;;;;;5052435;28;20032;-75
2022/12/19 11:56:28;;;;;;;7.32;4.40;;;9.70;77.00;;;;;;5037290;28;20036;-79
2022/12/19 11:58:58;;;;;;;7.32;4.35;;;9.70;77.30;;;;;;5064536;28;20025;-75
2022/12/19 12:01:46;;;;;;;7.25;4.50;;;9.70;77.40;;;;;;5072136;28;20381;-76
2022/12/19 12:04:30;;;;;;;7.20;4.22;;;9.70;77.10;;;;;;5073567;28;20029;-75
2022/12/19 12:06:56;;;;;;;7.45;4.32;;;9.70;77.00;;;;;;5073787;28;20043;-75
2022/12/19 12:09:40;;;;;;;7.00;4.30;;;9.70;77.00;;;;;;5091222;28;20476;-76
2022/12/19 12:12:30;;;;;;;7.82;4.40;;;9.70;77.20;;;;;;5090988;28;20029;-74
2022/12/19 12:15:50;;;;;;;7.50;4.20;;;9.70;77.20;;;;;;5091551;28;20502;-75
2022/12/19 12:18:29;;;;;;;7.50;4.40;;;9.70;77.00;;;;;;5059513;28;20487;-75
2022/12/19 12:21:23;;;;;;;7.75;4.63;;;9.70;77.00;;;;;;5090934;28;20020;-75
2022/12/19 12:24:27;;;;;;;7.75;4.47;;;9.70;77.00;;;;;;5091192;28;20024;-75
2022/12/19 12:27:11;;;;;;;7.80;4.20;;;9.70;77.00;;;;;;5061143;28;20040;-76
2022/12/19 12:29:57;;;;;;;7.75;4.13;;;9.70;77.10;;;;;;5092355;28;20031;-76
2022/12/19 12:32:29;;;;;;;7.47;4.63;;;9.70;77.30;;;;;;5091851;28;20065;-76
2022/12/19 12:35:08;;;;;;;7.03;4.18;;;9.70;77.40;;;;;;5091153;28;20027;-78
2022/12/19 12:37:47;;;;;;;7.40;4.22;;;9.70;77.40;;;;;;5092132;28;20032;-76
2022/12/19 12:40:33;;;;;;;8.55;4.25;;;9.70;77.50;;;;;;5092408;28;20475;-76
2022/12/19 12:43:11;;;;;;;7.13;4.15;;;9.70;77.30;;;;;;5092272;28;20020;-76
2022/12/19 12:45:46;;;;;;;6.78;4.05;;;9.70;77.20;;;;;;5091049;28;20028;-76
2022/12/19 12:48:35;;;;;;;7.30;4.18;;;9.70;77.50;;;;;;5090908;28;20491;-77
2022/12/19 12:51:01;;;;;;;7.13;4.22;;;9.70;77.30;;;;;;5091986;28;20504;-75
2022/12/19 12:53:46;;;;;;;7.18;4.22;;;9.70;77.60;;;;;;5091181;28;20024;-76
2022/12/19 12:56:16;;;;;;;6.75;4.05;;;9.70;77.40;;;;;;5091030;28;20111;-76
2022/12/19 12:58:45;;;;;;;7.50;4.40;;;9.70;77.30;;;;;;5092232;28;20114;-77
2022/12/19 13:01:34;;;;;;;7.22;4.20;;;9.60;77.30;;;;;;5093842;28;20112;-77
2022/12/19 13:04:11;;;;;;;6.50;3.80;;;9.70;77.50;;;;;;5096345;28;20496;-76
2022/12/19 13:06:39;;;;;;;7.93;4.30;;;9.70;77.40;;;;;;5094877;28;20040;-75
2022/12/19 13:09:08;;;;;;;8.27;4.63;;;9.70;77.90;;;;;;5094800;28;20051;-78
2022/12/19 13:14:33;;;;;;;8.18;4.60;;;9.70;77.60;;;;;;5096390;28;20160;-77
2022/12/19 13:17:16;;;;;;;7.70;4.40;;;9.70;77.50;;;;;;5096067;28;20047;-77